Latest Weather Observations for Albany Airport

IDW60801

Issued at 4:05 pm WST Saturday 1 November 2014 (issued every 30 minutes, with the page automatically refreshed every 10 minutes)

About weather observations | Map of weather stations | Latest weather observations for WA | Other Formats
Station Details ID: 009999 Name: ALBANY AIRPORT Lat: -34.94 Lon: 117.82 Height: 68.4 m
Data from the previous 72 hours. | See also: Recent months at Albany Airport
Date/Time
WST
Temp
°C
App
Temp
°C
Dew
Point
Rel
Hum
%
Delta-T
°C
Wind Press
QNH
hPa
Press
MSL
hPa
Rain
since 9 am
mm
Dir
 
Spd
km/h
Gust
km/h
Spd
kts
Gust
kts
01/04:00pm 22.4 18.4 10.4 46 6.6 E 22 28 12 15 1015.3 - 0.2
01/03:30pm 22.6 17.9 10.6 46 6.6 E 26 33 14 18 1015.2 - 0.2
01/03:00pm 23.1 19.0 11.3 47 6.6 ESE 24 30 13 16 1015.6 1015.7 0.2
01/02:30pm 24.8 21.3 5.6 29 9.8 NE 13 20 7 11 1015.7 - 0.2
01/02:00pm 24.5 20.0 6.3 31 9.4 NE 19 24 10 13 1016.3 - 0.2
01/01:30pm 24.3 21.8 6.5 32 9.2 E 9 19 5 10 1017.0 - 0.2
01/01:00pm 23.0 20.5 6.4 34 8.5 NE 9 17 5 9 1017.7 - 0.2
01/12:30pm 22.8 21.2 8.0 38 7.8 ENE 6 9 3 5 1018.2 - 0.2
01/12:00pm 22.2 18.9 6.5 36 8.0 NNE 13 24 7 13 1018.3 1018.4 0.2
01/11:30am 21.7 17.7 6.8 38 7.6 NE 17 24 9 13 1018.7 - 0.2
01/11:00am 20.8 16.8 6.8 40 7.1 NNE 17 24 9 13 1019.4 - 0.2
01/10:30am 20.0 16.0 6.7 42 6.7 NE 17 24 9 13 1019.8 - 0.2
01/10:00am 19.9 15.7 7.4 44 6.4 NNE 19 28 10 15 1020.2 - 0.0
01/09:30am 18.0 14.1 7.3 49 5.4 NE 17 24 9 13 1020.6 - 0.0
01/09:00am 17.2 13.3 7.2 51 5.0 NNE 17 24 9 13 1021.0 1021.1 0.0
01/08:30am 16.4 12.0 7.4 55 4.5 NE 20 28 11 15 1021.0 - 0.0
01/08:00am 14.9 10.1 7.4 61 3.7 NE 22 30 12 16 1020.9 - 0.0
01/07:30am 13.9 10.2 8.1 68 2.9 NE 17 24 9 13 1021.0 - 0.0
01/07:00am 11.9 9.0 8.0 77 1.9 NE 13 19 7 10 1021.0 - 0.0
01/06:30am 10.2 7.6 7.9 86 1.1 NE 11 15 6 8 1021.0 - 0.0
01/06:00am 6.8 4.2 5.9 94 0.4 NE 9 11 5 6 1020.8 1020.9 0.0
01/05:30am 6.6 4.3 5.5 93 0.5 NNE 7 9 4 5 1020.8 - 0.0
01/05:00am 5.9 3.1 5.2 95 0.3 NE 9 11 5 6 1020.6 - 0.0
01/04:30am 6.0 2.8 5.1 94 0.4 NE 11 13 6 7 1020.3 - 0.0
01/04:00am 6.0 3.2 5.3 95 0.3 ENE 9 11 5 6 1020.3 - 0.0
01/03:30am 6.0 3.6 5.3 95 0.3 ENE 7 9 4 5 1020.3 - 0.0
01/03:00am 6.4 4.1 5.5 94 0.4 NNE 7 9 4 5 1020.3 1020.4 0.0
01/02:30am 6.0 3.7 5.8 99 0.1 NNE 7 9 4 5 1020.3 - 0.0
01/02:00am 6.2 3.8 5.1 93 0.5 NNE 7 9 4 5 1020.1 - 0.0
01/01:30am 5.7 2.9 5.2 97 0.2 NNE 9 9 5 5 1020.2 - 0.0
01/01:00am 6.9 4.7 6.2 95 0.3 NNE 7 7 4 4 1020.4 - 0.0
01/12:30am 6.3 3.2 5.6 95 0.3 N 11 13 6 7 1020.6 - 0.0
01/12:00am 6.8 4.2 6.1 95 0.3 N 9 9 5 5 1020.9 1021.0 0.0
 
Date/Time
WST
Temp
°C
App
Temp
°C
Dew
Point
Rel
Hum
%
Delta-T
°C
Wind Press
QNH
hPa
Press
MSL
hPa
Rain
since 9 am
mm
Dir
 
Spd
km/h
Gust
km/h
Spd
kts
Gust
kts
31/11:30pm 8.0 6.0 6.9 93 0.5 N 7 7 4 4 1021.0 - 0.0
31/11:00pm 8.4 6.4 6.9 90 0.7 E 7 9 4 5 1020.9 - 0.0
31/10:30pm 8.7 6.9 7.2 90 0.7 NNE 6 7 3 4 1021.1 - 0.0
31/10:00pm 8.5 6.5 7.2 91 0.6 N 7 7 4 4 1021.2 - 0.0
31/09:30pm 8.5 7.0 7.0 90 0.7 E 4 9 2 5 1021.6 - 0.0
31/09:00pm 9.5 8.4 8.3 92 0.6 SSE 4 6 2 3 1021.6 1021.7 0.0
31/08:30pm 10.2 8.6 7.9 86 1.1 S 6 7 3 4 1021.6 - 0.0
31/07:30pm 11.6 9.9 8.3 80 1.6 S 7 9 4 5 1021.0 - 0.0
31/07:00pm 11.8 9.8 8.8 82 1.5 SSW 9 9 5 5 1020.8 - 0.0
31/06:30pm 13.3 11.0 7.6 68 2.8 S 9 11 5 6 1020.5 - 0.0
31/06:00pm 14.7 11.8 6.4 57 4.0 S 11 13 6 7 1020.2 1020.3 0.0
31/05:30pm 15.3 11.9 5.9 53 4.5 SSE 13 19 7 10 1019.8 - 0.0
31/05:00pm 16.1 12.5 6.7 53 4.6 S 15 20 8 11 1019.7 - 0.0
31/04:30pm 16.0 11.9 6.4 53 4.7 S 17 24 9 13 1019.5 - 0.0
31/04:00pm 16.7 13.2 7.3 54 4.7 S 15 22 8 12 1019.1 - 0.0
31/03:30pm 16.5 12.0 6.8 52 4.8 SSW 20 28 11 15 1019.1 - 0.0
31/03:00pm 17.4 13.0 7.2 51 5.1 SSW 20 28 11 15 1019.1 1019.2 0.0
31/02:30pm 17.3 13.1 7.6 53 4.9 S 19 30 10 16 1018.9 - 0.0
31/02:00pm 16.8 13.0 7.7 55 4.6 SSW 17 26 9 14 1018.7 - 0.0
31/01:30pm 17.4 13.6 7.7 53 4.9 S 17 22 9 12 1018.5 - 0.0
31/01:00pm 16.4 12.4 8.1 58 4.2 S 19 26 10 14 1018.5 - 0.0
31/12:30pm 17.2 13.2 8.2 55 4.6 S 19 30 10 16 1018.4 - 0.0
31/12:00pm 17.3 13.2 7.8 53 4.8 SSE 19 24 10 13 1018.1 1018.2 0.0
31/11:30am 16.9 13.0 7.1 52 4.9 SW 17 24 9 13 1018.0 - 0.0
31/11:00am 17.6 14.2 5.7 45 5.8 SSE 13 19 7 10 1018.0 - 0.0
31/10:30am 17.4 13.1 7.2 51 5.1 S 19 28 10 15 1018.0 - 0.0
31/10:00am 16.2 12.1 7.9 58 4.2 S 19 26 10 14 1017.8 - 0.0
31/09:30am 16.3 12.2 7.7 56 4.3 S 19 24 10 13 1017.5 - 0.0
31/09:00am 16.0 11.8 8.1 59 4.0 S 20 30 11 16 1017.1 1017.2 5.8
31/08:30am 15.5 11.8 9.3 66 3.2 S 19 28 10 15 1016.9 - 5.8
31/08:00am 15.5 11.3 8.4 62 3.6 SSW 20 26 11 14 1016.6 - 5.8
31/07:30am 15.4 10.3 7.6 59 3.9 SSW 24 33 13 18 1016.2 - 5.8
31/07:00am 15.1 10.2 8.4 64 3.4 SSW 24 37 13 20 1015.9 - 5.8
31/06:30am 12.7 10.2 8.0 73 2.3 W 11 15 6 8 1015.6 - 5.8
31/06:00am 11.2 8.7 8.1 81 1.5 W 11 15 6 8 1015.0 1015.1 5.8
31/05:30am 9.6 6.5 7.1 84 1.2 W 13 15 7 8 1014.6 - 5.8
31/05:00am 9.0 6.0 7.5 90 0.7 WNW 13 15 7 8 1014.0 - 5.8
31/04:30am 9.1 6.1 7.6 90 0.7 WNW 13 15 7 8 1013.6 - 5.8
31/04:00am 10.1 7.1 7.6 84 1.2 W 13 17 7 9 1013.4 - 5.8
31/03:30am 11.4 8.5 8.1 80 1.6 WSW 13 20 7 11 1012.9 - 5.8
31/03:00am 11.9 8.3 9.7 86 1.1 WSW 19 24 10 13 1012.6 1012.6 5.8
31/02:30am 12.4 9.5 10.9 90 0.8 W 17 22 9 12 1012.1 - 5.6
31/02:08am 12.4 10.0 11.3 93 0.6 WSW 15 20 8 11 1012.0 - 5.6
31/02:00am 12.3 9.1 11.2 93 0.6 WSW 19 28 10 15 1011.8 - 5.6
31/01:30am 12.5 8.8 11.6 94 0.5 WSW 22 35 12 19 1011.8 - 5.2
31/01:00am 12.5 10.3 12.1 97 0.2 W 15 20 8 11 1011.3 - 4.0
31/12:49am 12.5 10.2 11.9 96 0.3 W 15 20 8 11 1011.2 - 3.6
31/12:48am 12.4 9.7 11.8 96 0.3 W 17 20 9 11 1011.2 - 3.6
31/12:41am 12.3 9.7 11.9 97 0.2 W 17 24 9 13 1011.3 - 3.6
31/12:30am 12.1 9.4 11.7 97 0.2 WSW 17 22 9 12 1011.4 - 3.4
31/12:09am 12.5 7.7 11.8 95 0.4 WSW 28 50 15 27 1011.4 - 2.4
31/12:00am 13.2 9.9 12.7 97 0.3 WSW 22 32 12 17 1011.2 1011.3 1.8
 
Date/Time
WST
Temp
°C
App
Temp
°C
Dew
Point
Rel
Hum
%
Delta-T
°C
Wind Press
QNH
hPa
Press
MSL
hPa
Rain
since 9 am
mm
Dir
 
Spd
km/h
Gust
km/h
Spd
kts
Gust
kts
30/11:45pm 13.6 9.1 12.7 94 0.5 WSW 28 39 15 21 1011.0 - 1.6
30/11:36pm 14.4 12.1 13.0 91 0.8 W 17 20 9 11 1010.8 - 0.2
30/11:30pm 14.6 11.7 12.4 87 1.2 WNW 19 26 10 14 1010.5 - 0.0
30/11:00pm 14.9 11.3 12.0 83 1.6 WNW 22 28 12 15 1010.4 - 0.0
30/10:30pm 14.7 11.1 11.7 82 1.6 WNW 22 30 12 16 1010.3 - 0.0
30/10:00pm 14.8 11.3 12.2 84 1.4 WNW 22 30 12 16 1010.5 - 0.0
30/09:30pm 14.9 11.1 12.3 84 1.4 WNW 24 33 13 18 1010.9 - 0.0
30/09:00pm 14.9 10.7 12.5 85 1.3 WNW 26 35 14 19 1010.9 1011.0 0.0
30/08:45pm 14.8 10.9 13.2 90 0.9 W 26 35 14 19 1011.0 - 0.0
30/08:30pm 14.7 9.7 13.3 91 0.8 W 32 41 17 22 1011.0 - 0.0
30/08:19pm 15.2 10.1 13.2 88 1.1 W 32 43 17 23 1011.1 - 0.0
30/08:09pm 16.4 11.6 11.8 74 2.5 W 28 46 15 25 1010.9 - 0.0
30/08:00pm 16.5 13.3 11.9 74 2.5 W 20 33 11 18 1010.8 - 0.0
30/07:30pm 16.7 13.7 10.5 67 3.3 WSW 17 22 9 12 1010.5 - 0.0
30/07:00pm 17.2 12.5 9.1 59 4.2 W 24 35 13 19 1010.2 - 0.0
30/06:30pm 17.3 13.1 9.7 61 4.0 W 22 32 12 17 1009.8 - 0.0
30/06:00pm 17.9 12.7 10.2 60 4.1 W 28 35 15 19 1009.6 1009.7 0.0
30/05:30pm 18.4 12.7 11.1 62 4.0 WSW 32 41 17 22 1009.2 - 0.0
30/05:00pm 19.6 14.8 10.4 55 5.0 WSW 26 37 14 20 1008.9 - 0.0
30/04:30pm 19.8 13.7 9.7 52 5.4 WSW 32 50 17 27 1008.8 - 0.0
30/04:00pm 20.0 14.4 10.0 52 5.4 WSW 30 39 16 21 1008.9 - 0.0
30/03:30pm 19.6 13.7 10.4 55 5.0 WSW 32 41 17 22 1009.2 - 0.0
30/03:00pm 20.5 16.4 11.3 55 5.1 WSW 24 32 13 17 1009.3 1009.4 0.0
30/02:30pm 21.1 16.7 11.6 54 5.3 SW 26 35 14 19 1009.5 - 0.0
30/02:00pm 21.2 18.2 11.9 55 5.2 WSW 19 28 10 15 1009.5 - 0.0
30/01:30pm 21.7 19.2 12.4 55 5.3 WSW 17 24 9 13 1009.8 - 0.0
30/01:00pm 20.3 17.3 12.1 59 4.6 WSW 19 28 10 15 1010.1 - 0.0
30/12:30pm 21.3 17.8 10.8 51 5.8 WNW 20 28 11 15 1010.4 - 0.0
30/12:00pm 21.1 18.1 11.8 55 5.2 W 19 26 10 14 1010.8 1010.9 0.0
30/11:30am 19.7 17.0 11.8 60 4.4 W 17 26 9 14 1011.4 - 0.0
30/11:00am 18.7 15.5 12.0 65 3.7 WNW 20 26 11 14 1011.9 - 0.0
30/10:30am 19.0 16.3 12.8 67 3.5 WNW 19 24 10 13 1012.3 - 0.0
30/10:00am 18.1 16.2 12.9 71 2.9 W 15 20 8 11 1012.7 - 0.0
30/09:30am 17.3 15.0 13.0 76 2.4 W 17 22 9 12 1013.0 - 0.0
30/09:00am 17.1 15.6 13.0 77 2.3 WNW 13 17 7 9 1013.1 1013.1 0.0
30/08:30am 16.5 14.9 12.9 79 2.0 WNW 13 17 7 9 1013.0 - 0.0
30/08:00am 16.2 14.7 13.2 82 1.7 W 13 17 7 9 1013.2 - 0.0
30/07:48am 16.2 15.5 13.2 82 1.7 WNW 9 15 5 8 1013.3 - 0.0
30/07:30am 15.9 15.2 13.2 84 1.5 WNW 9 13 5 7 1013.4 - 0.0
30/07:00am 15.1 14.1 13.3 89 1.0 W 11 13 6 7 1013.5 - 0.0
30/06:30am 14.6 13.5 13.2 91 0.8 WSW 11 15 6 8 1013.5 - 0.0
30/06:00am 14.2 12.7 13.1 93 0.6 WSW 13 17 7 9 1013.6 1013.6 0.0
30/05:30am 14.1 13.3 13.0 93 0.6 W 9 11 5 6 1013.6 - 0.0
30/05:00am 14.3 13.1 12.7 90 0.9 W 11 13 6 7 1013.6 - 0.0
30/04:30am 14.4 13.1 12.6 89 1.0 WSW 11 15 6 8 1013.6 - 0.0
30/04:00am 14.4 14.0 13.0 91 0.8 W 7 9 4 5 1013.5 - 0.0
30/03:30am 14.4 14.0 13.0 91 0.8 W 7 9 4 5 1013.4 - 0.0
30/03:00am 14.3 14.0 12.7 90 0.9 WSW 6 7 3 4 1013.3 1013.3 0.0
30/02:30am 14.5 14.0 12.5 88 1.1 WSW 7 9 4 5 1013.4 - 0.0
30/02:00am 14.6 14.0 12.4 87 1.2 SW 7 9 4 5 1013.6 - 0.0
30/01:30am 14.9 14.4 12.5 85 1.3 SSW 7 9 4 5 1013.9 - 0.0
30/01:00am 15.0 14.0 12.3 84 1.5 SSW 9 11 5 6 1014.1 - 0.0
30/12:30am 14.9 14.6 12.7 87 1.2 SSW 6 9 3 5 1014.4 - 0.0
30/12:00am 15.1 15.9 12.6 85 1.4 CALM 0 0 0 0 1014.9 1015.0 0.0
 
Date/Time
WST
Temp
°C
App
Temp
°C
Dew
Point
Rel
Hum
%
Delta-T
°C
Wind Press
QNH
hPa
Press
MSL
hPa
Rain
since 9 am
mm
Dir
 
Spd
km/h
Gust
km/h
Spd
kts
Gust
kts
29/11:30pm 15.2 16.0 12.5 84 1.5 CALM 0 0 0 0 1015.0 - 0.0
29/11:00pm 15.1 16.0 12.9 87 1.2 CALM 0 2 0 1 1015.1 - 0.0
29/10:30pm 15.1 15.6 12.7 85 1.3 S 2 7 1 4 1015.0 - 0.0
29/10:00pm 15.1 14.8 12.6 85 1.4 S 6 7 3 4 1015.4 - 0.0
29/09:30pm 15.2 14.7 12.5 84 1.5 S 7 9 4 5 1015.6 - 0.0
29/09:00pm 15.1 14.7 12.4 84 1.5 S 6 7 3 4 1015.6 1015.7 0.0
29/08:30pm 14.9 14.9 12.5 85 1.3 SSW 4 7 2 4 1015.6 - 0.0
29/08:00pm 14.6 13.9 12.0 84 1.4 SSE 7 9 4 5 1015.4 - 0.0
29/07:30pm 14.8 13.7 11.8 82 1.6 SE 9 11 5 6 1015.1 - 0.0
29/07:00pm 15.1 13.6 12.0 82 1.7 ESE 11 13 6 7 1014.7 - 0.0
29/06:30pm 16.0 14.6 12.2 78 2.1 ESE 11 15 6 8 1014.9 - 0.0
29/06:00pm 16.4 14.5 11.8 74 2.5 ESE 13 17 7 9 1014.6 1014.7 0.0
29/05:30pm 16.6 14.3 11.6 72 2.7 ESE 15 17 8 9 1014.8 - 0.0
29/05:00pm 16.9 14.6 11.6 71 2.9 SE 15 22 8 12 1014.8 - 0.0
29/04:30pm 17.0 14.6 11.5 70 3.0 SSE 15 22 8 12 1014.8 - 0.0

Other Formats:

Comma delimited format used in spreadsheet applications
http://www.bom.gov.au/fwo/IDW60801/IDW60801.94802.axf

JavaScript Object Notation format (JSON) in row-major order
http://www.bom.gov.au/fwo/IDW60801/IDW60801.94802.json